Time;durP1;ratioP1;P1;durP2;ratioP2;P2;SDS_P1;SDS_P2;PMS_P1;PMS_P2;Temp;Humidity;BMP_temperature;BMP_pressure;BME280_temperature;BME280_humidity;BME280_pressure;Samples;Min_cycle;Max_cycle;Signal;HPM_P1;HPM_P2
2023/03/01 00:01:01;;;;;;;9.88;5.88;;;-0.40;99.90;;;;;;5034574;28;20637;-78
2023/03/01 00:03:29;;;;;;;7.45;5.32;;;-0.40;99.90;;;;;;5035027;28;20229;-81
2023/03/01 00:05:55;;;;;;;9.15;5.55;;;-0.40;99.90;;;;;;5033917;28;20203;-79
2023/03/01 00:08:22;;;;;;;11.02;6.68;;;-0.40;99.90;;;;;;5034722;28;20204;-80
2023/03/01 00:10:49;;;;;;;7.28;5.40;;;-0.40;99.90;;;;;;5034560;28;20201;-79
2023/03/01 00:13:16;;;;;;;7.75;5.80;;;-0.50;99.90;;;;;;5034692;28;20228;-80
2023/03/01 00:15:43;;;;;;;8.80;6.60;;;-0.50;99.90;;;;;;5034723;28;20665;-80
2023/03/01 00:18:10;;;;;;;9.32;6.18;;;-0.50;99.90;;;;;;5034532;28;20655;-79
2023/03/01 00:20:38;;;;;;;7.70;5.68;;;-0.50;54.10;;;;;;5033712;28;20252;-80
2023/03/01 00:23:05;;;;;;;6.18;5.30;;;-0.50;99.90;;;;;;5034950;28;20239;-80
2023/03/01 00:25:31;;;;;;;7.68;5.30;;;-0.50;99.90;;;;;;5034033;28;20208;-79
2023/03/01 00:27:58;;;;;;;9.50;6.25;;;-0.50;1.00;;;;;;5034493;28;20242;-80
2023/03/01 00:30:25;;;;;;;9.20;5.85;;;-0.50;1.00;;;;;;5034081;28;20207;-80
2023/03/01 00:32:52;;;;;;;10.45;5.47;;;-0.60;1.00;;;;;;5033371;28;20236;-81
2023/03/01 00:35:18;;;;;;;8.13;5.68;;;-0.60;1.00;;;;;;5034093;28;20195;-80
2023/03/01 00:37:47;;;;;;;8.43;5.63;;;-0.60;1.00;;;;;;5034406;28;20526;-80
2023/03/01 00:40:16;;;;;;;10.13;6.47;;;-0.60;1.00;;;;;;5032987;28;20213;-81
2023/03/01 00:42:42;;;;;;;9.50;6.25;;;-0.60;99.90;;;;;;5034027;28;20279;-80
2023/03/01 00:45:10;;;;;;;7.55;5.70;;;-0.70;99.90;;;;;;5033813;28;20287;-80
2023/03/01 00:47:37;;;;;;;9.93;6.43;;;-0.80;1.00;;;;;;5033647;28;20210;-81
2023/03/01 00:50:04;;;;;;;12.43;6.10;;;-0.80;1.00;;;;;;5032874;28;20580;-80
2023/03/01 00:52:31;;;;;;;8.48;5.53;;;-0.80;1.00;;;;;;5034431;28;20303;-80
2023/03/01 00:54:59;;;;;;;7.50;5.40;;;-0.90;1.00;;;;;;5033837;28;20205;-81
2023/03/01 00:57:26;;;;;;;10.48;6.18;;;-0.90;36.20;;;;;;5028603;28;20590;-80
2023/03/01 00:59:53;;;;;;;7.00;5.10;;;-0.90;99.90;;;;;;5031865;28;20214;-80
2023/03/01 01:02:20;;;;;;;8.30;6.15;;;-1.00;99.90;;;;;;5033317;28;20226;-78
2023/03/01 01:04:48;;;;;;;9.77;6.75;;;-1.00;99.90;;;;;;5032478;28;20691;-81
2023/03/01 01:07:16;;;;;;;7.43;5.75;;;-1.00;99.90;;;;;;5033581;28;20604;-80
2023/03/01 01:09:43;;;;;;;9.57;5.82;;;-1.00;99.90;;;;;;5032789;28;20223;-80
2023/03/01 01:12:11;;;;;;;8.75;5.68;;;-1.10;99.90;;;;;;5033683;28;20580;-80
2023/03/01 01:14:38;;;;;;;7.80;5.90;;;-1.10;99.90;;;;;;5033717;28;20212;-81
2023/03/01 01:17:05;;;;;;;11.25;6.22;;;-1.10;1.00;;;;;;5024026;28;20204;-79
2023/03/01 01:19:32;;;;;;;10.07;5.70;;;-1.10;99.90;;;;;;5032064;28;20197;-79
2023/03/01 01:21:59;;;;;;;7.38;6.20;;;-1.20;1.00;;;;;;5034468;28;20223;-80
2023/03/01 01:24:26;;;;;;;7.18;4.80;;;-1.30;99.90;;;;;;5035101;28;20208;-81
2023/03/01 01:26:52;;;;;;;11.00;5.70;;;-1.30;1.00;;;;;;5032107;28;20195;-80
2023/03/01 01:29:21;;;;;;;8.82;6.32;;;-1.30;1.00;;;;;;5033739;28;20206;-78
2023/03/01 01:31:47;;;;;;;7.28;5.38;;;-1.30;2.90;;;;;;5034309;28;20201;-81
2023/03/01 01:34:17;;;;;;;8.57;6.10;;;-1.30;99.90;;;;;;5034087;28;20224;-81
2023/03/01 01:36:44;;;;;;;8.07;5.80;;;-1.30;46.50;;;;;;5033717;28;20199;-78
2023/03/01 01:39:12;;;;;;;7.93;6.05;;;-1.30;99.90;;;;;;5027649;28;20199;-79
2023/03/01 01:41:40;;;;;;;7.90;6.50;;;-1.40;99.90;;;;;;5033995;28;20230;-80
2023/03/01 01:44:17;;;;;;;10.05;6.82;;;-1.40;1.00;;;;;;5033348;28;20228;-80
2023/03/01 01:46:48;;;;;;;8.20;5.93;;;-1.40;1.00;;;;;;5033302;28;20195;-78
2023/03/01 01:49:27;;;;;;;10.10;6.40;;;-1.40;1.00;;;;;;5031727;28;20221;-78
2023/03/01 01:52:00;;;;;;;10.90;6.53;;;-1.40;99.90;;;;;;5032913;28;20203;-80
2023/03/01 01:54:31;;;;;;;7.65;5.88;;;-1.50;99.90;;;;;;5033231;28;20193;-80
2023/03/01 01:57:04;;;;;;;8.98;6.60;;;-1.50;99.90;;;;;;5033737;28;20206;-79
2023/03/01 01:59:32;;;;;;;11.93;7.25;;;-1.50;99.90;;;;;;5032477;28;20192;-79
2023/03/01 02:02:04;;;;;;;11.20;6.32;;;-1.50;99.90;;;;;;5032250;28;20226;-79
2023/03/01 02:04:31;;;;;;;10.45;7.45;;;-1.50;99.90;;;;;;5029451;28;20202;-80
2023/03/01 02:07:04;;;;;;;9.20;6.05;;;-1.50;99.90;;;;;;5033327;28;20208;-80
2023/03/01 02:09:32;;;;;;;9.60;6.10;;;-1.50;99.90;;;;;;5032483;28;20568;-80
2023/03/01 02:12:00;;;;;;;9.27;6.90;;;-1.50;61.30;;;;;;5032733;28;20203;-80
2023/03/01 02:14:27;;;;;;;10.50;6.40;;;-1.50;99.90;;;;;;5033441;28;20205;-78
2023/03/01 02:16:54;;;;;;;10.05;7.28;;;-1.50;99.90;;;;;;5033142;28;20199;-79
2023/03/01 02:19:32;;;;;;;8.98;6.60;;;-1.50;99.90;;;;;;5032377;28;20594;-80
2023/03/01 02:22:06;;;;;;;14.63;8.05;;;-1.50;99.90;;;;;;5031546;28;20226;-80
2023/03/01 02:24:40;;;;;;;10.32;6.55;;;-1.50;1.00;;;;;;5031531;28;20203;-79
2023/03/01 02:27:10;;;;;;;6.95;5.63;;;-1.40;16.40;;;;;;5031701;28;20203;-79
2023/03/01 02:29:38;;;;;;;14.43;8.02;;;-1.40;99.90;;;;;;5030743;28;20207;-80
2023/03/01 02:32:06;;;;;;;13.35;6.10;;;-1.40;70.10;;;;;;5031043;28;20698;-80
2023/03/01 02:34:33;;;;;;;9.30;6.50;;;-1.50;1.00;;;;;;5031569;28;20212;-78
2023/03/01 02:37:04;;;;;;;11.45;7.22;;;-1.40;1.00;;;;;;5030521;28;20216;-80
2023/03/01 02:39:35;;;;;;;9.45;6.25;;;-1.40;99.90;;;;;;5033397;28;20189;-78
2023/03/01 02:42:03;;;;;;;9.32;7.38;;;-1.40;99.90;;;;;;5035227;28;20227;-79
2023/03/01 02:44:30;;;;;;;10.65;7.07;;;-1.40;99.90;;;;;;5035761;28;20198;-80
2023/03/01 02:47:03;;;;;;;8.73;5.95;;;-1.30;1.00;;;;;;5034987;28;20202;-78
2023/03/01 02:49:32;;;;;;;11.13;6.93;;;-1.30;1.00;;;;;;5033559;28;20192;-79
2023/03/01 02:52:28;;;;;;;8.82;6.05;;;-1.30;99.90;;;;;;5034821;28;20208;-79
2023/03/01 02:54:59;;;;;;;11.13;6.18;;;-1.30;99.90;;;;;;5032716;28;20207;-79
2023/03/01 02:57:28;;;;;;;9.02;7.28;;;-1.30;1.00;;;;;;5034635;28;20268;-79
2023/03/01 02:59:56;;;;;;;9.85;5.28;;;-1.30;1.00;;;;;;5033771;28;20200;-79
2023/03/01 03:02:35;;;;;;;8.30;5.65;;;-1.20;99.90;;;;;;5033855;28;20619;-79
2023/03/01 03:05:05;;;;;;;8.15;5.63;;;-1.30;1.00;;;;;;5034663;28;20723;-78
2023/03/01 03:07:33;;;;;;;9.48;5.93;;;-1.30;1.00;;;;;;5035022;28;20257;-78
2023/03/01 03:10:00;;;;;;;8.73;5.60;;;-1.30;99.90;;;;;;5033018;28;20202;-79
2023/03/01 03:12:27;;;;;;;12.18;7.05;;;-1.30;99.90;;;;;;5033874;28;20221;-80
2023/03/01 03:14:54;;;;;;;8.80;5.47;;;-1.30;99.90;;;;;;5034802;28;20233;-79
2023/03/01 03:17:21;;;;;;;10.52;6.57;;;-1.30;25.60;;;;;;5034056;28;20214;-77
2023/03/01 03:19:49;;;;;;;9.18;6.13;;;-1.30;1.00;;;;;;5033680;28;20210;-80
2023/03/01 03:22:16;;;;;;;9.43;6.97;;;-1.30;1.00;;;;;;5033386;28;20231;-79
2023/03/01 03:24:43;;;;;;;7.50;5.68;;;-1.30;99.90;;;;;;5034217;28;20218;-78
2023/03/01 03:27:09;;;;;;;8.13;6.07;;;-1.30;99.90;;;;;;5033661;28;20690;-79
2023/03/01 03:29:36;;;;;;;7.75;5.72;;;-1.30;99.90;;;;;;5032841;28;20212;-80
2023/03/01 03:32:03;;;;;;;14.90;6.90;;;-1.30;99.90;;;;;;5034158;28;20202;-79
2023/03/01 03:34:30;;;;;;;9.93;6.32;;;-1.30;99.90;;;;;;5033898;28;20203;-79
2023/03/01 03:36:59;;;;;;;10.93;6.95;;;-1.30;99.90;;;;;;5030229;28;20207;-79
2023/03/01 03:39:26;;;;;;;7.35;5.18;;;-1.40;99.90;;;;;;5016662;28;20212;-80
2023/03/01 03:41:53;;;;;;;11.13;6.50;;;-1.40;99.90;;;;;;5030092;28;20218;-77
2023/03/01 03:44:20;;;;;;;7.88;5.85;;;-1.40;1.00;;;;;;5034923;28;20201;-77
2023/03/01 03:46:47;;;;;;;7.43;5.22;;;-1.40;1.00;;;;;;5034314;28;20210;-79
2023/03/01 03:49:13;;;;;;;9.73;5.88;;;-1.40;1.00;;;;;;5033157;28;20215;-79
2023/03/01 03:51:40;;;;;;;10.88;6.22;;;-1.50;1.00;;;;;;5034366;28;20199;-80
2023/03/01 03:54:08;;;;;;;9.02;6.35;;;-1.50;64.80;;;;;;5034004;28;20235;-79
2023/03/01 03:56:35;;;;;;;9.73;6.35;;;-1.50;99.90;;;;;;5034500;28;20596;-80
2023/03/01 03:59:02;;;;;;;8.18;5.82;;;-1.60;99.90;;;;;;5028475;28;20291;-80
2023/03/01 04:01:29;;;;;;;11.80;6.55;;;-1.60;1.00;;;;;;5020697;28;20207;-80
2023/03/01 04:03:56;;;;;;;9.75;6.63;;;-1.60;1.00;;;;;;5030556;28;20283;-78
2023/03/01 04:06:22;;;;;;;9.23;6.50;;;-1.70;1.00;;;;;;5034412;28;20584;-79
2023/03/01 04:08:50;;;;;;;12.02;6.70;;;-1.70;1.00;;;;;;5023713;28;20211;-78
2023/03/01 04:11:27;;;;;;;10.00;5.35;;;-1.80;1.00;;;;;;5029305;28;20199;-78
2023/03/01 04:13:57;;;;;;;11.00;8.10;;;-1.80;99.90;;;;;;5031406;28;20230;-78
2023/03/01 04:16:24;;;;;;;9.48;6.50;;;-1.80;1.00;;;;;;5030694;28;20206;-78
2023/03/01 04:18:53;;;;;;;12.95;6.88;;;-1.80;99.90;;;;;;5031088;28;20214;-77
2023/03/01 04:21:20;;;;;;;8.20;5.80;;;-1.90;36.50;;;;;;5032141;28;20294;-78
2023/03/01 04:23:47;;;;;;;10.88;6.35;;;-1.90;1.00;;;;;;5032302;28;20238;-78
2023/03/01 04:26:14;;;;;;;9.80;5.88;;;-1.90;99.90;;;;;;5031077;28;20209;-78
2023/03/01 04:28:44;;;;;;;10.68;6.70;;;-2.00;99.90;;;;;;5014301;28;20199;-77
2023/03/01 04:31:15;;;;;;;9.35;6.85;;;-2.00;99.90;;;;;;5029440;28;20246;-77
2023/03/01 04:33:43;;;;;;;10.85;7.22;;;-2.00;99.90;;;;;;5032917;28;20218;-77
2023/03/01 04:36:10;;;;;;;13.55;6.78;;;-2.10;1.00;;;;;;5032449;28;20209;-76
2023/03/01 04:38:38;;;;;;;9.75;6.97;;;-2.10;76.70;;;;;;5033206;28;20409;-77
2023/03/01 04:41:05;;;;;;;11.70;7.50;;;-2.10;99.90;;;;;;5033482;28;20750;-78
2023/03/01 04:43:33;;;;;;;8.82;7.90;;;-2.10;99.90;;;;;;5035141;28;20237;-76
2023/03/01 04:46:09;;;;;;;12.93;7.82;;;-2.10;1.00;;;;;;5033569;28;20295;-78
2023/03/01 04:48:36;;;;;;;10.95;6.70;;;-2.20;99.90;;;;;;5032134;28;20616;-79
2023/03/01 04:51:04;;;;;;;9.98;7.15;;;-2.20;1.00;;;;;;5032212;28;20249;-78
2023/03/01 04:53:31;;;;;;;10.52;6.82;;;-2.20;1.00;;;;;;5034761;28;20219;-80
2023/03/01 04:55:58;;;;;;;13.38;6.88;;;-2.30;1.00;;;;;;5041457;28;20200;-82
2023/03/01 04:58:26;;;;;;;10.13;6.85;;;-2.30;79.30;;;;;;5040713;28;20203;-80
2023/03/01 05:00:53;;;;;;;13.07;7.53;;;-2.30;46.80;;;;;;5041086;28;20209;-82
2023/03/01 05:03:22;;;;;;;11.10;7.80;;;-2.30;99.90;;;;;;5041807;28;20257;-81
2023/03/01 05:05:50;;;;;;;13.32;7.45;;;-2.30;99.90;;;;;;5042413;28;20202;-81
2023/03/01 05:08:18;;;;;;;12.75;7.65;;;-2.30;99.90;;;;;;5037988;28;20207;-85
2023/03/01 05:10:46;;;;;;;12.65;7.60;;;-2.30;1.00;;;;;;5042901;28;20215;-80
2023/03/01 05:13:14;;;;;;;15.15;7.00;;;-2.30;98.30;;;;;;5043922;28;20244;-83
2023/03/01 05:15:42;;;;;;;10.00;7.50;;;-2.30;51.10;;;;;;5044170;28;20210;-83
2023/03/01 05:18:11;;;;;;;15.13;8.20;;;-2.30;99.90;;;;;;5044528;28;20203;-81
2023/03/01 05:20:39;;;;;;;9.90;7.38;;;-2.30;61.60;;;;;;5043261;28;20213;-83
2023/03/01 05:23:06;;;;;;;14.95;8.55;;;-2.30;99.90;;;;;;5044949;28;20253;-83
2023/03/01 05:25:39;;;;;;;10.88;7.57;;;-2.40;99.90;;;;;;5044008;28;20203;-82
2023/03/01 05:28:07;;;;;;;11.55;7.95;;;-2.40;99.90;;;;;;5047789;28;20538;-83
2023/03/01 05:30:35;;;;;;;12.77;8.57;;;-2.40;99.90;;;;;;5043862;28;20207;-82
2023/03/01 05:33:02;;;;;;;11.70;9.18;;;-2.40;99.90;;;;;;5044528;28;20259;-84
2023/03/01 05:35:32;;;;;;;10.43;7.78;;;-2.40;99.90;;;;;;5044785;28;20202;-83
2023/03/01 05:38:00;;;;;;;11.20;7.50;;;-2.40;99.90;;;;;;5044796;28;20209;-83
2023/03/01 05:40:27;;;;;;;13.45;8.18;;;-2.40;99.90;;;;;;5044214;28;20668;-83
2023/03/01 05:42:56;;;;;;;9.38;7.18;;;-2.40;99.90;;;;;;5044229;28;20230;-83
2023/03/01 05:45:24;;;;;;;14.25;8.25;;;-2.40;99.90;;;;;;5045510;28;20230;-82
2023/03/01 05:47:51;;;;;;;16.00;9.30;;;-2.40;99.90;;;;;;5041216;28;20209;-83
2023/03/01 05:50:20;;;;;;;14.50;8.15;;;-2.40;99.90;;;;;;5029084;28;20201;-83
2023/03/01 05:52:48;;;;;;;10.43;7.88;;;-2.30;99.90;;;;;;5024926;28;20219;-83
2023/03/01 05:55:17;;;;;;;15.25;9.70;;;-2.30;99.90;;;;;;5039920;28;20211;-83
2023/03/01 05:57:44;;;;;;;12.60;8.23;;;-2.20;99.90;;;;;;5044718;28;20203;-83
2023/03/01 06:00:13;;;;;;;12.52;8.73;;;-2.20;53.50;;;;;;5043920;28;20202;-83
2023/03/01 06:02:41;;;;;;;14.68;8.05;;;-2.20;1.00;;;;;;5042954;28;20224;-83
2023/03/01 06:05:10;;;;;;;13.48;8.95;;;-2.10;1.00;;;;;;5045871;28;20272;-84
2023/03/01 06:07:37;;;;;;;11.73;7.57;;;-2.20;1.00;;;;;;5043912;28;20214;-84
2023/03/01 06:10:05;;;;;;;21.60;8.80;;;-2.10;99.90;;;;;;5044068;28;20199;-83
2023/03/01 06:12:34;;;;;;;13.65;8.43;;;-2.10;37.00;;;;;;5046063;28;20226;-83
2023/03/01 06:15:00;;;;;;;13.23;7.32;;;-2.10;1.00;;;;;;5041570;28;20204;-83
2023/03/01 06:17:30;;;;;;;14.48;8.50;;;-2.10;99.90;;;;;;5046979;28;20267;-82
2023/03/01 06:19:57;;;;;;;10.52;6.60;;;-1.90;99.90;;;;;;5044040;28;20271;-82
2023/03/01 06:22:24;;;;;;;10.65;7.88;;;-1.90;1.00;;;;;;5042041;28;20222;-83
2023/03/01 06:24:51;;;;;;;12.30;7.80;;;-1.90;1.00;;;;;;5039790;28;20270;-83
2023/03/01 06:27:19;;;;;;;12.18;7.85;;;-1.90;1.00;;;;;;5035088;28;20209;-83
2023/03/01 06:29:50;;;;;;;9.38;7.65;;;-1.80;1.00;;;;;;5033897;28;20204;-84
2023/03/01 06:32:17;;;;;;;11.20;7.75;;;-1.80;99.90;;;;;;5032151;28;20230;-84
2023/03/01 06:34:44;;;;;;;11.00;7.28;;;-1.80;20.30;;;;;;5033173;28;20289;-81
2023/03/01 06:37:11;;;;;;;13.88;7.97;;;-1.80;1.00;;;;;;5041510;28;20219;-83
2023/03/01 06:39:38;;;;;;;12.20;7.45;;;-1.80;1.00;;;;;;5037121;28;20208;-83
2023/03/01 06:42:05;;;;;;;9.98;7.25;;;-1.70;1.00;;;;;;5036778;28;20261;-84
2023/03/01 06:44:32;;;;;;;12.43;8.15;;;-1.60;99.90;;;;;;5028363;28;20203;-81
2023/03/01 06:47:00;;;;;;;14.15;8.38;;;-1.60;1.00;;;;;;5037044;28;20242;-82
2023/03/01 06:49:27;;;;;;;13.07;8.00;;;-1.60;1.00;;;;;;5027267;28;20208;-84
2023/03/01 06:51:54;;;;;;;10.40;7.30;;;-1.50;99.90;;;;;;5027734;28;20697;-82
2023/03/01 06:54:22;;;;;;;11.00;7.57;;;-1.50;99.90;;;;;;5039805;28;20204;-82
2023/03/01 06:56:49;;;;;;;12.38;8.55;;;-1.50;99.90;;;;;;5036639;28;20210;-82
2023/03/01 06:59:17;;;;;;;17.08;10.88;;;-1.50;99.90;;;;;;5033206;28;20617;-82
2023/03/01 07:01:44;;;;;;;16.70;9.05;;;-1.40;79.10;;;;;;5042216;28;20268;-81
2023/03/01 07:04:13;;;;;;;11.65;7.05;;;-1.30;99.90;;;;;;5032453;28;20596;-84
2023/03/01 07:06:41;;;;;;;10.45;7.68;;;-1.20;99.90;;;;;;5036566;28;20203;-82
2023/03/01 07:09:07;;;;;;;12.40;8.13;;;-1.20;99.90;;;;;;5020197;28;20208;-83
2023/03/01 07:11:34;;;;;;;15.38;9.05;;;-1.20;99.90;;;;;;5026592;28;20211;-82
2023/03/01 07:14:01;;;;;;;14.13;9.10;;;-1.20;99.90;;;;;;5031592;28;20231;-82
2023/03/01 07:16:28;;;;;;;15.85;7.47;;;-1.10;99.90;;;;;;5036071;28;20286;-83
2023/03/01 07:18:55;;;;;;;12.07;8.32;;;-1.10;89.30;;;;;;5021157;28;20204;-83
2023/03/01 07:21:23;;;;;;;13.55;8.70;;;-1.10;93.70;;;;;;5033875;28;20262;-83
2023/03/01 07:23:50;;;;;;;12.63;8.00;;;-1.00;99.90;;;;;;5031142;28;20279;-82
2023/03/01 07:26:19;;;;;;;11.02;7.18;;;-0.90;1.00;;;;;;5034051;28;20204;-83
2023/03/01 07:28:46;;;;;;;12.55;8.40;;;-0.90;1.00;;;;;;5034441;28;20223;-83
2023/03/01 07:31:21;;;;;;;11.40;8.00;;;-0.90;1.00;;;;;;5035267;28;20294;-82
2023/03/01 07:33:48;;;;;;;18.75;9.32;;;-0.90;1.00;;;;;;5036846;28;20220;-84
2023/03/01 07:36:15;;;;;;;11.10;8.00;;;-0.80;1.00;;;;;;5040246;28;20272;-84
2023/03/01 07:38:43;;;;;;;11.88;8.20;;;-0.70;1.00;;;;;;5042501;28;20531;-84
2023/03/01 07:41:10;;;;;;;15.05;9.18;;;-0.70;1.00;;;;;;5035236;28;20221;-83
2023/03/01 07:43:37;;;;;;;12.82;9.25;;;-0.70;1.00;;;;;;5039522;28;20234;-84
2023/03/01 07:46:05;;;;;;;10.60;7.80;;;-0.70;1.00;;;;;;5034858;28;20213;-81
2023/03/01 07:48:33;;;;;;;15.90;8.02;;;-0.60;1.00;;;;;;5039803;28;20207;-84
2023/03/01 07:51:00;;;;;;;14.82;9.52;;;-0.50;1.00;;;;;;5039824;28;20206;-84
2023/03/01 07:53:27;;;;;;;12.20;8.10;;;-0.50;1.00;;;;;;5038787;28;20228;-86
2023/03/01 07:56:03;;;;;;;14.90;8.07;;;-0.40;99.90;;;;;;5044390;28;20219;-85
2023/03/01 07:58:30;;;;;;;13.40;8.07;;;-0.30;99.90;;;;;;5044874;28;20271;-85
2023/03/01 08:00:57;;;;;;;11.25;8.02;;;-0.20;99.90;;;;;;5043617;28;20213;-79
2023/03/01 08:03:23;;;;;;;13.10;7.82;;;-0.20;99.90;;;;;;5025686;28;20338;-83
2023/03/01 08:05:50;;;;;;;12.48;8.10;;;-0.10;99.90;;;;;;5031889;28;20212;-85
2023/03/01 08:08:17;;;;;;;12.05;7.32;;;0.00;99.90;;;;;;5032668;28;20701;-85
2023/03/01 08:10:44;;;;;;;13.82;10.10;;;0.10;99.90;;;;;;5031491;28;20199;-85
2023/03/01 08:13:12;;;;;;;11.70;9.05;;;0.10;99.90;;;;;;5031130;28;20225;-85
2023/03/01 08:15:39;;;;;;;12.77;7.70;;;0.20;99.90;;;;;;5033053;28;20219;-85
2023/03/01 08:18:06;;;;;;;12.25;8.05;;;0.30;87.70;;;;;;5026364;28;20681;-85
2023/03/01 08:20:33;;;;;;;12.02;7.80;;;0.30;53.40;;;;;;5027375;28;20233;-84
2023/03/01 08:22:59;;;;;;;11.88;7.88;;;0.40;36.10;;;;;;5028289;28;20233;-83
2023/03/01 08:25:26;;;;;;;11.77;8.00;;;0.40;34.80;;;;;;5024698;28;20332;-84
2023/03/01 08:27:53;;;;;;;12.00;7.70;;;0.50;11.50;;;;;;5033043;28;20206;-83
2023/03/01 08:30:23;;;;;;;13.20;8.35;;;0.60;1.00;;;;;;5036142;28;20539;-84
2023/03/01 08:32:50;;;;;;;13.80;8.57;;;0.70;1.00;;;;;;5039069;28;20767;-84
2023/03/01 08:35:17;;;;;;;9.67;7.77;;;0.90;1.00;;;;;;5036773;28;20762;-82
2023/03/01 08:37:44;;;;;;;11.50;7.88;;;1.20;1.00;;;;;;5031865;28;20897;-83
2023/03/01 08:40:13;;;;;;;10.60;7.18;;;1.50;1.00;;;;;;5029922;28;20281;-85
2023/03/01 08:42:40;;;;;;;15.20;8.60;;;1.70;1.00;;;;;;5036018;28;20230;-86
2023/03/01 08:45:08;;;;;;;12.60;7.53;;;1.80;1.00;;;;;;5040757;28;20445;-83
2023/03/01 08:47:37;;;;;;;8.70;6.30;;;1.90;1.00;;;;;;5030220;28;20484;-84
2023/03/01 08:50:05;;;;;;;12.50;6.10;;;2.00;1.00;;;;;;5029514;28;20441;-84
2023/03/01 08:52:33;;;;;;;10.53;7.20;;;2.30;1.00;;;;;;5031623;28;20447;-83
2023/03/01 08:55:01;;;;;;;12.03;6.90;;;2.60;1.00;;;;;;5043206;28;20476;-83
2023/03/01 08:57:28;;;;;;;9.60;6.43;;;2.80;1.00;;;;;;5023295;28;20469;-84
2023/03/01 08:59:56;;;;;;;10.40;6.73;;;3.00;1.00;;;;;;5036475;28;20428;-84
2023/03/01 09:02:23;;;;;;;8.30;5.83;;;3.00;1.00;;;;;;5037448;28;20443;-84
2023/03/01 09:04:51;;;;;;;8.10;6.33;;;3.00;1.00;;;;;;5034728;28;20527;-85
2023/03/01 09:07:19;;;;;;;11.00;6.40;;;3.20;1.00;;;;;;5027189;28;20447;-85
2023/03/01 09:09:46;;;;;;;9.70;6.40;;;3.60;1.00;;;;;;5042044;28;20431;-84
2023/03/01 09:12:13;;;;;;;9.33;6.07;;;4.40;1.00;;;;;;5027402;28;20429;-85
2023/03/01 09:14:41;;;;;;;9.00;6.40;;;5.10;1.00;;;;;;5025710;28;20446;-84
2023/03/01 09:17:07;;;;;;;7.77;5.63;;;5.70;99.90;;;;;;5040626;28;20464;-84
2023/03/01 09:19:34;;;;;;;8.40;5.27;;;6.00;99.90;;;;;;5022717;28;20516;-85
2023/03/01 09:22:04;;;;;;;10.33;6.43;;;6.60;99.90;;;;;;5028975;28;20462;-84
2023/03/01 09:24:31;;;;;;;7.97;5.83;;;6.80;99.90;;;;;;5033137;28;20487;-85
2023/03/01 09:26:58;;;;;;;7.00;5.10;;;6.80;99.90;;;;;;5035010;28;20456;-84
2023/03/01 09:29:25;;;;;;;11.20;6.70;;;7.20;99.90;;;;;;5027692;28;21021;-85
2023/03/01 09:31:54;;;;;;;8.50;5.63;;;8.10;99.90;;;;;;5024630;28;20495;-85
2023/03/01 09:34:23;;;;;;;10.43;6.23;;;8.50;99.90;;;;;;5036182;28;20460;-84
2023/03/01 09:36:50;;;;;;;8.23;5.00;;;8.20;99.90;;;;;;5032618;28;20539;-85
2023/03/01 09:39:20;;;;;;;7.30;5.23;;;8.40;99.90;;;;;;5042087;28;20517;-85
2023/03/01 09:41:54;;;;;;;9.07;4.67;;;9.60;99.90;;;;;;5033642;28;20449;-85
2023/03/01 09:44:29;;;;;;;8.23;5.50;;;9.90;99.90;;;;;;5028424;28;20544;-84
2023/03/01 09:46:57;;;;;;;9.77;5.37;;;10.20;99.90;;;;;;5040881;28;20532;-85
2023/03/01 09:49:26;;;;;;;9.27;5.50;;;10.10;99.90;;;;;;5026778;28;20515;-85
2023/03/01 09:51:59;;;;;;;6.57;4.60;;;10.50;99.90;;;;;;5026786;28;20453;-85
2023/03/01 09:54:28;;;;;;;14.23;5.27;;;11.90;99.90;;;;;;5035858;28;20448;-85
2023/03/01 09:57:07;;;;;;;6.57;5.03;;;11.70;99.90;;;;;;5039696;28;20453;-86
2023/03/01 09:59:58;;;;;;;7.90;5.23;;;11.20;99.90;;;;;;5043839;28;20455;-85
2023/03/01 10:02:31;;;;;;;10.90;5.27;;;11.50;99.90;;;;;;5031194;28;20579;-84
2023/03/01 10:05:13;;;;;;;8.20;4.50;;;11.70;99.90;;;;;;5041427;28;20471;-85
2023/03/01 10:07:47;;;;;;;7.00;5.10;;;11.80;99.90;;;;;;5027563;28;20523;-87
2023/03/01 10:10:26;;;;;;;7.07;5.47;;;12.80;99.90;;;;;;5032366;28;20871;-86
2023/03/01 10:12:54;;;;;;;5.50;4.13;;;12.20;99.90;;;;;;5029831;28;20460;-86
2023/03/01 10:15:29;;;;;;;6.40;4.80;;;10.70;99.90;;;;;;5029392;28;20498;-84
2023/03/01 10:17:58;;;;;;;6.70;5.00;;;9.90;99.90;;;;;;5036614;28;20454;-84
2023/03/01 10:20:27;;;;;;;7.30;4.33;;;10.20;99.90;;;;;;5041683;28;20450;-85
2023/03/01 10:22:55;;;;;;;7.40;5.00;;;9.80;99.90;;;;;;5036963;28;20563;-84
2023/03/01 10:25:42;;;;;;;7.67;4.83;;;9.10;99.90;;;;;;5038351;28;21412;-85
2023/03/01 10:28:17;;;;;;;7.00;4.57;;;8.50;99.90;;;;;;5039135;28;20452;-84
2023/03/01 10:30:45;;;;;;;7.17;4.43;;;8.30;99.90;;;;;;5037937;28;20456;-83
2023/03/01 10:33:18;;;;;;;8.63;4.90;;;9.30;99.90;;;;;;5039239;28;20988;-85
2023/03/01 10:35:44;;;;;;;6.37;5.13;;;9.70;99.90;;;;;;5036172;28;20445;-83
2023/03/01 10:38:14;;;;;;;7.03;4.80;;;10.10;99.90;;;;;;5039867;28;20462;-84
2023/03/01 10:40:54;;;;;;;6.80;5.57;;;11.00;99.90;;;;;;5039411;28;20458;-85
2023/03/01 10:43:22;;;;;;;7.37;5.40;;;12.50;99.90;;;;;;5040478;28;20482;-81
2023/03/01 10:45:49;;;;;;;5.83;4.50;;;14.10;99.90;;;;;;5040274;28;20470;-81
2023/03/01 10:48:19;;;;;;;8.70;5.47;;;15.00;99.90;;;;;;5034842;28;20468;-83
2023/03/01 10:50:47;;;;;;;6.20;5.23;;;15.90;99.90;;;;;;5033437;28;20455;-82
2023/03/01 10:53:28;;;;;;;5.87;5.20;;;16.60;99.90;;;;;;5031801;28;20461;-84
2023/03/01 10:56:02;;;;;;;8.33;5.77;;;17.00;99.90;;;;;;5037321;28;20939;-82
2023/03/01 10:58:30;;;;;;;6.40;4.90;;;17.20;99.90;;;;;;5036125;28;20454;-82
2023/03/01 11:00:58;;;;;;;7.70;5.60;;;17.30;99.90;;;;;;5039945;28;20452;-82
2023/03/01 11:03:27;;;;;;;5.77;4.97;;;17.70;99.90;;;;;;5039531;28;20858;-82
2023/03/01 11:06:00;;;;;;;5.20;4.47;;;17.80;99.90;;;;;;5039971;28;20933;-83
2023/03/01 11:08:35;;;;;;;6.27;4.60;;;18.00;99.90;;;;;;5038818;28;20786;-81
2023/03/01 11:11:15;;;;;;;9.60;5.67;;;18.70;99.90;;;;;;5039708;28;20903;-83
2023/03/01 11:13:54;;;;;;;6.63;5.20;;;19.40;99.90;;;;;;5040040;28;20483;-83
2023/03/01 11:16:26;;;;;;;6.03;4.90;;;19.40;99.90;;;;;;5032387;28;20467;-82
2023/03/01 11:19:16;;;;;;;9.03;6.10;;;19.30;99.90;;;;;;5038086;28;20449;-83
2023/03/01 11:21:50;;;;;;;7.10;5.23;;;20.00;99.90;;;;;;5022631;28;20460;-83
2023/03/01 11:24:19;;;;;;;7.53;5.00;;;19.90;99.90;;;;;;5031485;28;20501;-83
2023/03/01 11:26:52;;;;;;;8.40;6.00;;;19.90;99.90;;;;;;5032498;28;20453;-81
2023/03/01 11:29:29;;;;;;;7.00;4.73;;;19.10;99.90;;;;;;5036307;28;20454;-83
2023/03/01 11:32:00;;;;;;;7.40;4.63;;;19.50;99.90;;;;;;5037921;28;21549;-83
2023/03/01 11:34:39;;;;;;;9.67;6.20;;;20.70;99.90;;;;;;5037828;28;20447;-83
2023/03/01 11:37:29;;;;;;;5.93;4.70;;;20.80;99.90;;;;;;5034025;28;20456;-82
2023/03/01 11:40:04;;;;;;;8.60;5.53;;;20.20;99.90;;;;;;5024242;28;20455;-81
2023/03/01 11:42:47;;;;;;;11.90;5.87;;;18.80;99.90;;;;;;5036156;28;20487;-83
2023/03/01 11:45:14;;;;;;;6.90;6.20;;;18.30;99.90;;;;;;5025627;28;20488;-81
2023/03/01 11:48:12;;;;;;;6.70;5.43;;;19.10;99.90;;;;;;5022756;28;20460;-83
2023/03/01 11:50:45;;;;;;;8.90;5.63;;;18.00;99.90;;;;;;5030410;28;20449;-83
2023/03/01 11:53:34;;;;;;;10.03;6.33;;;19.40;99.90;;;;;;5033537;28;20480;-83
2023/03/01 11:56:10;;;;;;;8.50;6.43;;;18.90;99.90;;;;;;5034587;28;20459;-82
2023/03/01 11:58:54;;;;;;;8.20;5.53;;;20.00;99.90;;;;;;5031087;28;20503;-83
2023/03/01 12:01:48;;;;;;;7.73;5.30;;;21.00;99.90;;;;;;5024545;28;20957;-82
2023/03/01 12:04:43;;;;;;;7.73;5.33;;;19.90;99.90;;;;;;5030144;28;20498;-83
2023/03/01 12:07:21;;;;;;;7.50;5.77;;;20.40;99.90;;;;;;5031040;28;20585;-82
2023/03/01 12:10:05;;;;;;;7.20;5.67;;;18.30;99.90;;;;;;5032968;28;20453;-83
2023/03/01 12:12:43;;;;;;;5.90;5.27;;;18.70;99.90;;;;;;5034610;28;20484;-82
2023/03/01 12:15:40;;;;;;;8.70;5.03;;;19.10;99.90;;;;;;5036618;28;20812;-82
2023/03/01 12:18:28;;;;;;;5.70;5.10;;;20.30;99.90;;;;;;5026510;28;20526;-82
2023/03/01 12:21:04;;;;;;;6.17;5.07;;;22.00;99.90;;;;;;5036708;28;20485;-83
2023/03/01 12:24:01;;;;;;;8.10;6.13;;;20.90;99.90;;;;;;5037678;28;20554;-83
2023/03/01 12:26:32;;;;;;;9.73;6.20;;;20.90;99.90;;;;;;5036724;28;20530;-83
2023/03/01 12:29:16;;;;;;;6.63;5.50;;;21.30;99.90;;;;;;5037596;28;20452;-85
2023/03/01 12:32:00;;;;;;;7.47;5.60;;;21.60;99.90;;;;;;5027636;28;20457;-85
2023/03/01 12:34:43;;;;;;;6.33;5.43;;;22.60;99.90;;;;;;5028759;28;20964;-85
2023/03/01 12:37:23;;;;;;;6.93;5.60;;;22.40;99.90;;;;;;5026875;28;20445;-85
2023/03/01 12:40:12;;;;;;;9.27;6.60;;;22.10;99.90;;;;;;5028497;28;20504;-85
2023/03/01 12:42:51;;;;;;;7.57;5.80;;;20.80;99.90;;;;;;5027263;28;20502;-85
2023/03/01 12:45:40;;;;;;;6.30;5.47;;;21.60;99.90;;;;;;5025632;28;20479;-84
2023/03/01 12:48:26;;;;;;;6.90;5.40;;;21.90;99.90;;;;;;5028617;28;20456;-85
2023/03/01 12:50:54;;;;;;;7.60;6.13;;;21.60;99.90;;;;;;5026925;28;20563;-85
2023/03/01 12:53:25;;;;;;;8.97;6.07;;;21.40;99.90;;;;;;5028063;28;20478;-85
2023/03/01 12:55:55;;;;;;;6.27;4.73;;;21.10;99.90;;;;;;5027681;28;20458;-85
2023/03/01 12:58:27;;;;;;;10.70;6.40;;;20.30;99.90;;;;;;5028393;28;20441;-84
2023/03/01 13:01:05;;;;;;;5.77;4.87;;;19.90;99.90;;;;;;5029887;28;21104;-85